createdAt,value
2018-09-17T00:01:43.022Z,3.10
2018-09-17T00:04:11.596Z,2.50
2018-09-17T00:06:40.695Z,2.70
2018-09-17T00:09:09.925Z,2.43
2018-09-17T00:11:38.258Z,2.27
2018-09-17T00:14:06.685Z,2.60
2018-09-17T00:16:34.992Z,2.50
2018-09-17T00:19:03.441Z,2.53
2018-09-17T00:21:31.808Z,2.60
2018-09-17T00:24:00.163Z,2.33
2018-09-17T00:26:29.263Z,2.70
2018-09-17T00:28:57.724Z,3.10
2018-09-17T00:31:26.048Z,2.70
2018-09-17T00:33:54.371Z,2.53
2018-09-17T00:36:22.701Z,3.13
2018-09-17T00:38:51.073Z,2.57
2018-09-17T00:41:19.449Z,2.50
2018-09-17T00:43:47.781Z,2.50
2018-09-17T00:46:16.207Z,2.60
2018-09-17T00:48:44.521Z,2.30
2018-09-17T00:51:12.871Z,2.30
2018-09-17T00:53:41.255Z,2.40
2018-09-17T00:56:09.639Z,2.27
2018-09-17T00:58:37.967Z,2.30
2018-09-17T01:01:06.293Z,2.70
2018-09-17T01:03:34.628Z,2.30
2018-09-17T01:06:03.040Z,2.47
2018-09-17T01:08:31.388Z,2.70
2018-09-17T01:10:59.734Z,2.33
2018-09-17T01:13:28.109Z,2.30
2018-09-17T01:15:56.474Z,2.50
2018-09-17T01:18:24.835Z,2.30
2018-09-17T01:20:53.210Z,2.57
2018-09-17T01:23:21.561Z,2.37
2018-09-17T01:25:50.167Z,2.43
2018-09-17T01:28:19.367Z,2.17
2018-09-17T01:30:48.477Z,2.40
2018-09-17T01:33:16.857Z,2.50
2018-09-17T01:35:45.255Z,2.20
2018-09-17T01:38:13.581Z,2.33
2018-09-17T01:40:41.971Z,2.20
2018-09-17T01:43:11.069Z,2.23
2018-09-17T01:45:40.205Z,2.20
2018-09-17T01:48:08.631Z,2.30
2018-09-17T01:50:37.640Z,2.07
2018-09-17T01:53:05.951Z,2.33
2018-09-17T01:55:34.307Z,1.90
2018-09-17T01:58:02.642Z,2.37
2018-09-17T02:00:31.007Z,2.30
2018-09-17T02:02:59.320Z,2.20
2018-09-17T02:05:27.679Z,2.20
2018-09-17T02:07:56.007Z,2.13
2018-09-17T02:10:24.365Z,2.17
2018-09-17T02:12:53.492Z,1.97
2018-09-17T02:15:21.846Z,2.10
2018-09-17T02:17:50.995Z,2.20
2018-09-17T02:20:19.339Z,1.70
2018-09-17T02:22:47.731Z,2.07
2018-09-17T02:25:16.109Z,2.20
2018-09-17T02:27:44.451Z,2.20
2018-09-17T02:30:13.637Z,2.20
2018-09-17T02:32:41.985Z,2.00
2018-09-17T02:35:10.357Z,2.10
2018-09-17T02:37:38.743Z,2.10
2018-09-17T02:40:07.057Z,2.23
2018-09-17T02:42:35.471Z,2.30
2018-09-17T02:45:03.803Z,2.27
2018-09-17T02:47:32.368Z,2.77
2018-09-17T02:50:00.710Z,2.40
2018-09-17T02:52:29.026Z,2.53
2018-09-17T02:54:57.355Z,2.73
2018-09-17T02:57:26.495Z,2.50
2018-09-17T02:59:54.827Z,2.23
2018-09-17T03:02:23.908Z,2.40
2018-09-17T03:04:53.030Z,2.30
2018-09-17T03:07:21.427Z,2.73
2018-09-17T03:09:49.801Z,2.80
2018-09-17T03:12:18.129Z,2.63
2018-09-17T03:14:46.477Z,3.00
2018-09-17T03:17:14.877Z,2.50
2018-09-17T03:19:43.343Z,2.47
2018-09-17T03:22:11.793Z,2.63
2018-09-17T03:24:40.158Z,2.40
2018-09-17T03:27:08.469Z,2.83
2018-09-17T03:29:36.783Z,2.40
2018-09-17T03:32:05.117Z,2.50
2018-09-17T03:34:33.439Z,2.80
2018-09-17T03:37:01.774Z,2.67
2018-09-17T03:39:30.107Z,2.60
2018-09-17T03:41:58.579Z,2.50
2018-09-17T03:44:26.893Z,2.87
2018-09-17T03:46:56.011Z,2.70
2018-09-17T03:49:25.257Z,2.53
2018-09-17T03:51:53.597Z,2.90
2018-09-17T03:54:21.919Z,2.40
2018-09-17T03:56:50.356Z,2.80
2018-09-17T03:59:18.689Z,2.60
2018-09-17T04:01:47.099Z,2.30
2018-09-17T04:04:15.461Z,2.30
2018-09-17T04:06:43.950Z,2.60
2018-09-17T04:09:13.038Z,2.27
2018-09-17T04:11:41.378Z,2.80
2018-09-17T04:14:09.827Z,2.50
2018-09-17T04:16:38.177Z,2.47
2018-09-17T04:19:06.469Z,2.40
2018-09-17T04:21:34.789Z,2.23
2018-09-17T04:24:03.129Z,2.83
2018-09-17T04:26:31.470Z,2.23
2018-09-17T04:28:59.879Z,2.50
2018-09-17T04:31:28.965Z,2.50
2018-09-17T04:33:58.073Z,2.30
2018-09-17T04:36:26.457Z,2.77
2018-09-17T04:38:55.769Z,2.90
2018-09-17T04:41:24.253Z,2.50
2018-09-17T04:43:52.605Z,2.40
2018-09-17T04:46:21.103Z,2.60
2018-09-17T04:48:49.626Z,2.70
2018-09-17T04:51:17.948Z,2.60
2018-09-17T04:53:47.045Z,2.47
2018-09-17T04:56:15.389Z,2.73
2018-09-17T04:58:43.701Z,3.00
2018-09-17T05:01:12.326Z,2.70
2018-09-17T05:03:40.638Z,2.40
2018-09-17T05:06:09.069Z,2.50
2018-09-17T05:08:37.385Z,3.07
2018-09-17T05:11:05.745Z,2.60
2018-09-17T05:13:34.313Z,2.50
2018-09-17T05:16:02.537Z,2.60
2018-09-17T05:18:30.927Z,3.17
2018-09-17T05:21:00.121Z,3.47
2018-09-17T05:23:28.483Z,2.93
2018-09-17T05:25:56.804Z,2.37
2018-09-17T05:28:26.015Z,2.87
2018-09-17T05:30:54.321Z,2.90
2018-09-17T05:33:22.661Z,2.50
2018-09-17T05:35:50.983Z,2.83
2018-09-17T05:38:19.352Z,2.67
2018-09-17T05:40:47.903Z,2.50
2018-09-17T05:43:16.292Z,2.47
2018-09-17T05:45:44.618Z,2.77
2018-09-17T05:48:13.037Z,4.43
2018-09-17T05:50:41.388Z,3.10
2018-09-17T05:53:10.456Z,2.80
2018-09-17T05:55:38.802Z,2.53
2018-09-17T05:58:07.139Z,2.80
2018-09-17T06:00:35.506Z,2.77
2018-09-17T06:03:03.928Z,2.47
2018-09-17T06:05:32.347Z,2.57
2018-09-17T06:08:00.623Z,2.60
2018-09-17T06:10:28.954Z,2.60
2018-09-17T06:12:57.291Z,2.70
2018-09-17T06:15:25.724Z,2.50
2018-09-17T06:17:54.090Z,2.93
2018-09-17T06:20:23.212Z,2.57
2018-09-17T06:22:51.538Z,2.70
2018-09-17T06:25:20.659Z,2.40
2018-09-17T06:27:48.980Z,2.17
2018-09-17T06:30:17.339Z,2.50
2018-09-17T06:32:46.419Z,2.53
2018-09-17T06:35:14.772Z,2.40
2018-09-17T06:37:43.167Z,2.50
2018-09-17T06:40:11.445Z,2.43
2018-09-17T06:42:39.861Z,2.60
2018-09-17T06:45:08.331Z,2.60
2018-09-17T06:47:36.657Z,2.50
2018-09-17T06:50:05.036Z,2.50
2018-09-17T06:52:33.360Z,2.27
2018-09-17T06:55:02.475Z,2.53
2018-09-17T06:57:30.845Z,2.40
2018-09-17T06:59:59.205Z,2.50
2018-09-17T07:02:28.296Z,2.67
2018-09-17T07:04:57.520Z,2.80
2018-09-17T07:07:25.902Z,3.27
2018-09-17T07:09:54.266Z,3.47
2018-09-17T07:12:22.648Z,2.40
2018-09-17T07:14:51.114Z,2.50
2018-09-17T07:17:20.242Z,2.70
2018-09-17T07:19:48.619Z,2.20
2018-09-17T07:22:17.077Z,2.60
2018-09-17T07:24:45.486Z,2.50
2018-09-17T07:27:13.816Z,2.50
2018-09-17T07:29:42.138Z,2.60
2018-09-17T07:32:10.482Z,2.60
2018-09-17T07:34:39.566Z,2.60
2018-09-17T07:37:08.378Z,2.50
2018-09-17T07:39:37.678Z,2.30
2018-09-17T07:42:06.837Z,2.63
2018-09-17T07:44:35.186Z,2.40
2018-09-17T07:47:03.551Z,2.93
2018-09-17T07:49:31.871Z,2.60
2018-09-17T07:52:00.295Z,2.90
2018-09-17T07:54:28.628Z,2.50
2018-09-17T07:56:56.979Z,2.40
2018-09-17T07:59:25.510Z,2.43
2018-09-17T08:01:53.838Z,2.30
2018-09-17T08:04:22.173Z,2.70
2018-09-17T08:06:51.286Z,2.30
2018-09-17T08:09:19.662Z,2.50
2018-09-17T08:11:48.755Z,2.50
2018-09-17T08:14:17.877Z,1.95
2018-09-17T08:16:46.405Z,2.30
2018-09-17T08:19:14.862Z,2.40
2018-09-17T08:21:43.200Z,2.30
2018-09-17T08:24:11.541Z,2.47
2018-09-17T08:26:39.861Z,2.20
2018-09-17T08:29:08.254Z,2.40
2018-09-17T08:31:37.313Z,2.37
2018-09-17T08:34:05.776Z,2.45
2018-09-17T08:36:34.075Z,2.50
2018-09-17T08:39:03.195Z,2.30
2018-09-17T08:41:31.568Z,2.30
2018-09-17T08:44:00.888Z,2.50
2018-09-17T08:46:30.010Z,2.53
2018-09-17T08:48:58.495Z,2.37
2018-09-17T08:51:26.919Z,2.45
2018-09-17T08:53:55.403Z,2.30
2018-09-17T08:56:24.511Z,2.17
2018-09-17T08:58:53.603Z,2.75
2018-09-17T09:01:22.711Z,2.33
2018-09-17T09:03:51.064Z,2.20
2018-09-17T09:06:19.463Z,2.47
2018-09-17T09:08:47.781Z,2.40
2018-09-17T09:11:16.109Z,2.40
2018-09-17T09:13:45.293Z,2.25
2018-09-17T09:16:14.525Z,2.58
2018-09-17T09:18:43.136Z,2.30
2018-09-17T09:21:11.432Z,2.80
2018-09-17T09:23:39.778Z,2.65
2018-09-17T09:26:08.121Z,2.10
2018-09-17T09:28:36.442Z,1.90
2018-09-17T09:31:04.766Z,2.20
2018-09-17T09:33:33.871Z,2.10
2018-09-17T09:36:02.206Z,1.98
2018-09-17T09:38:30.546Z,2.15
2018-09-17T09:40:58.921Z,2.12
2018-09-17T09:43:27.313Z,2.20
2018-09-17T09:45:55.640Z,2.00
2018-09-17T09:48:24.066Z,1.95
2018-09-17T09:50:52.454Z,2.35
2018-09-17T09:53:20.795Z,2.15
2018-09-17T09:55:49.903Z,2.20
2018-09-17T09:58:18.229Z,2.10
2018-09-17T10:00:46.604Z,2.10
2018-09-17T10:03:14.963Z,2.75
2018-09-17T10:05:44.059Z,2.40
2018-09-17T10:08:12.426Z,2.50
2018-09-17T10:16:36.113Z,2.57
2018-09-17T10:19:22.273Z,2.37
2018-09-17T10:21:51.313Z,2.00
2018-09-17T10:24:20.417Z,1.90
2018-09-17T10:26:49.628Z,1.92
2018-09-17T10:29:18.009Z,2.10
2018-09-17T10:31:46.335Z,2.42
2018-09-17T10:34:14.777Z,1.95
2018-09-17T10:36:43.349Z,2.50
2018-09-17T10:39:11.838Z,2.87
2018-09-17T10:41:40.315Z,2.92
2018-09-17T10:44:08.694Z,2.28
2018-09-17T10:46:37.757Z,2.50
2018-09-17T10:49:06.871Z,2.62
2018-09-17T10:51:35.964Z,3.12
2018-09-17T10:54:04.317Z,2.60
2018-09-17T10:56:32.637Z,2.70
2018-09-17T10:59:00.992Z,2.33
2018-09-17T11:01:30.153Z,2.50
2018-09-17T11:03:58.504Z,2.20
2018-09-17T11:06:27.448Z,2.62
2018-09-17T11:08:55.795Z,2.78
2018-09-17T11:11:24.195Z,2.60
2018-09-17T11:13:53.534Z,2.42
2018-09-17T11:16:22.630Z,2.50
2018-09-17T11:18:51.840Z,2.75
2018-09-17T11:21:20.176Z,2.80
2018-09-17T11:23:48.497Z,2.87
2018-09-17T11:26:16.875Z,2.85
2018-09-17T11:28:45.360Z,2.50
2018-09-17T11:31:13.769Z,2.47
2018-09-17T11:33:42.161Z,2.20
2018-09-17T11:36:10.541Z,2.12
2018-09-17T11:38:38.864Z,2.25
2018-09-17T11:41:07.993Z,2.28
2018-09-17T11:43:36.310Z,2.10
2018-09-17T11:46:04.732Z,2.42
2018-09-17T11:48:33.114Z,1.87
2018-09-17T11:51:01.825Z,2.22
2018-09-17T11:53:31.310Z,2.00
2018-09-17T11:56:00.312Z,2.08
2018-09-17T11:58:28.673Z,1.85
2018-09-17T12:00:57.010Z,2.12
2018-09-17T12:03:25.478Z,2.47
2018-09-17T12:05:53.848Z,2.30
2018-09-17T12:08:22.162Z,2.05
2018-09-17T12:10:50.590Z,2.20
2018-09-17T12:13:18.988Z,1.60
2018-09-17T12:15:47.337Z,2.25
2018-09-17T12:18:15.804Z,2.40
2018-09-17T12:20:44.893Z,6.15
2018-09-17T12:23:14.024Z,2.10
2018-09-17T12:25:42.348Z,1.90
2018-09-17T12:28:10.774Z,2.10
2018-09-17T12:30:39.098Z,2.50
2018-09-17T12:33:07.566Z,2.10
2018-09-17T12:35:35.962Z,2.10
2018-09-17T12:38:05.738Z,2.00
2018-09-17T12:40:34.081Z,2.15
2018-09-17T12:43:03.231Z,2.25
2018-09-17T12:45:31.570Z,1.98
2018-09-17T12:47:59.972Z,1.85
2018-09-17T12:50:28.383Z,1.55
2018-09-17T12:52:56.783Z,1.98
2018-09-17T12:55:25.200Z,2.20
2018-09-17T12:57:53.593Z,1.95
2018-09-17T13:00:21.957Z,2.00
2018-09-17T13:02:50.283Z,2.00
2018-09-17T13:05:18.633Z,2.05
2018-09-17T13:07:46.956Z,1.90
2018-09-17T13:10:15.506Z,2.62
2018-09-17T13:12:43.935Z,2.37
2018-09-17T13:15:13.062Z,2.37
2018-09-17T13:17:41.403Z,2.17
2018-09-17T13:20:10.536Z,1.92
2018-09-17T13:22:38.890Z,1.90
2018-09-17T13:25:08.001Z,2.12
2018-09-17T13:27:42.511Z,1.83
2018-09-17T13:30:10.834Z,2.12
2018-09-17T13:32:39.282Z,2.05
2018-09-17T13:35:07.629Z,2.40
2018-09-17T13:37:36.056Z,1.95
2018-09-17T13:40:04.431Z,2.08
2018-09-17T13:42:32.862Z,2.20
2018-09-17T13:45:01.878Z,2.08
2018-09-17T13:47:31.036Z,2.12
2018-09-17T13:49:59.406Z,2.40
2018-09-17T13:52:27.876Z,2.15
2018-09-17T13:54:57.062Z,1.95
2018-09-17T13:57:25.400Z,2.05
2018-09-17T13:59:53.875Z,2.25
2018-09-17T14:02:22.364Z,2.08
2018-09-17T14:04:51.051Z,1.83
2018-09-17T14:07:19.504Z,1.98
2018-09-17T14:09:47.889Z,2.03
2018-09-17T14:12:18.681Z,2.05
2018-09-17T14:14:47.294Z,2.00
2018-09-17T14:17:15.647Z,2.30
2018-09-17T14:19:43.997Z,2.17
2018-09-17T14:22:12.415Z,2.20
2018-09-17T14:24:40.740Z,2.05
2018-09-17T14:27:09.193Z,1.95
2018-09-17T14:29:37.505Z,1.87
2018-09-17T14:32:05.874Z,2.10
2018-09-17T14:34:34.326Z,1.90
2018-09-17T14:37:02.743Z,2.12
2018-09-17T14:39:31.052Z,2.08
2018-09-17T14:41:59.600Z,1.95
2018-09-17T14:44:27.920Z,2.10
2018-09-17T14:46:57.002Z,1.83
2018-09-17T14:49:26.104Z,2.20
2018-09-17T14:51:54.435Z,2.12
2018-09-17T14:54:22.835Z,2.08
2018-09-17T14:56:51.197Z,1.90
2018-09-17T14:59:19.578Z,1.95
2018-09-17T15:01:48.053Z,2.10
2018-09-17T15:04:16.446Z,2.08
2018-09-17T15:06:44.718Z,1.90
2018-09-17T15:09:13.210Z,2.10
2018-09-17T15:11:41.521Z,2.28
2018-09-17T15:14:10.043Z,2.20
2018-09-17T15:16:38.398Z,1.90
2018-09-17T15:19:06.772Z,1.92
2018-09-17T15:21:35.126Z,2.20
2018-09-17T15:24:04.393Z,2.30
2018-09-17T15:26:32.815Z,1.90
2018-09-17T15:29:00.994Z,2.20
2018-09-17T15:31:29.354Z,2.17
2018-09-17T15:33:57.699Z,2.30
2018-09-17T15:36:26.102Z,2.15
2018-09-17T15:38:54.506Z,2.55
2018-09-17T15:41:22.981Z,2.47
2018-09-17T15:43:51.323Z,2.10
2018-09-17T15:46:19.822Z,2.30
2018-09-17T15:48:48.459Z,2.25
2018-09-17T15:51:16.797Z,2.12
2018-09-17T15:53:45.113Z,2.22
2018-09-17T15:56:13.529Z,2.28
2018-09-17T15:58:41.880Z,2.53
2018-09-17T16:01:10.973Z,2.17
2018-09-17T16:03:39.306Z,2.30
2018-09-17T16:06:07.740Z,2.55
2018-09-17T16:08:36.093Z,2.03
2018-09-17T16:11:04.452Z,2.30
2018-09-17T16:13:33.700Z,2.45
2018-09-17T16:16:02.224Z,3.28
2018-09-17T16:18:30.579Z,2.40
2018-09-17T16:20:58.918Z,2.80
2018-09-17T16:23:27.272Z,2.45
2018-09-17T16:25:56.369Z,2.37
2018-09-17T16:28:25.455Z,2.35
2018-09-17T16:30:54.578Z,2.80
2018-09-17T16:33:22.968Z,2.60
2018-09-17T16:35:51.353Z,2.53
2018-09-17T16:38:19.715Z,2.42
2018-09-17T16:40:48.749Z,2.50
2018-09-17T16:43:17.083Z,3.03
2018-09-17T16:45:46.638Z,2.80
2018-09-17T16:48:15.201Z,2.65
2018-09-17T16:50:43.899Z,2.85
2018-09-17T16:53:12.249Z,6.47
2018-09-17T16:55:40.841Z,6.65
2018-09-17T16:58:10.095Z,3.80
2018-09-17T17:00:38.519Z,3.53
2018-09-17T17:03:06.875Z,3.20
2018-09-17T17:05:36.136Z,3.40
2018-09-17T17:08:04.471Z,3.22
2018-09-17T17:10:32.860Z,2.83
2018-09-17T17:13:01.207Z,2.65
2018-09-17T17:15:29.876Z,3.05
2018-09-17T17:17:58.233Z,2.90
2018-09-17T17:20:26.563Z,3.00
2018-09-17T17:22:54.950Z,3.00
2018-09-17T17:25:23.273Z,2.95
2018-09-17T17:27:51.784Z,3.25
2018-09-17T17:30:20.253Z,3.30
2018-09-17T17:32:48.641Z,3.53
2018-09-17T17:35:16.971Z,3.55
2018-09-17T17:37:45.299Z,3.03
2018-09-17T17:40:13.764Z,2.97
2018-09-17T17:42:42.080Z,2.95
2018-09-17T17:45:10.427Z,2.83
2018-09-17T17:47:38.791Z,3.30
2018-09-17T17:50:07.413Z,3.10
2018-09-17T17:52:36.531Z,6.62
2018-09-17T17:55:04.897Z,16.65
2018-09-17T17:57:34.025Z,11.82
2018-09-17T18:00:02.379Z,9.48
2018-09-17T18:02:30.773Z,7.47
2018-09-17T18:04:59.346Z,5.37
2018-09-17T18:07:28.564Z,5.65
2018-09-17T18:09:56.882Z,24.05
2018-09-17T18:12:25.361Z,27.50
2018-09-17T18:14:53.763Z,14.35
2018-09-17T18:17:22.178Z,6.40
2018-09-17T18:19:50.528Z,4.68
2018-09-17T18:22:19.660Z,4.47
2018-09-17T18:24:48.090Z,3.62
2018-09-17T18:27:17.361Z,3.50
2018-09-17T18:29:45.722Z,3.40
2018-09-17T18:32:14.159Z,3.70
2018-09-17T18:34:43.323Z,3.95
2018-09-17T18:37:11.655Z,3.83
2018-09-17T18:39:40.146Z,3.95
2018-09-17T18:42:08.373Z,3.55
2018-09-17T18:44:36.679Z,4.55
2018-09-17T18:47:05.820Z,7.10
2018-09-17T18:49:34.317Z,7.60
2018-09-17T18:52:02.677Z,6.35
2018-09-17T18:54:31.059Z,5.57
2018-09-17T18:56:59.587Z,3.92
2018-09-17T18:59:27.885Z,2.90
2018-09-17T19:01:56.304Z,2.80
2018-09-17T19:04:24.797Z,2.75
2018-09-17T19:06:53.151Z,3.05
2018-09-17T19:09:21.554Z,9.88
2018-09-17T19:11:50.151Z,10.95
2018-09-17T19:14:18.471Z,7.32
2018-09-17T19:16:47.642Z,5.20
2018-09-17T19:19:16.007Z,4.37
2018-09-17T19:21:44.391Z,3.92
2018-09-17T19:24:12.817Z,7.28
2018-09-17T19:26:41.205Z,9.68
2018-09-17T19:29:16.303Z,6.03
2018-09-17T19:31:44.698Z,4.20
2018-09-17T19:34:13.156Z,3.55
2018-09-17T19:36:41.794Z,4.12
2018-09-17T19:39:15.699Z,3.87
2018-09-17T19:41:44.220Z,14.40
2018-09-17T19:44:12.585Z,6.33
2018-09-17T19:46:40.892Z,4.57
2018-09-17T19:49:09.267Z,4.57
2018-09-17T19:54:37.649Z,3.70
2018-09-17T19:57:06.043Z,2.75
2018-09-17T19:59:49.425Z,3.67
2018-09-17T20:02:17.827Z,4.30
2018-09-17T20:04:46.247Z,4.00
2018-09-17T20:07:14.802Z,3.70
2018-09-17T20:09:44.153Z,3.00
2018-09-17T20:12:12.537Z,3.20
2018-09-17T20:14:41.712Z,2.70
2018-09-17T20:17:10.091Z,2.80
2018-09-17T20:19:38.436Z,2.80
2018-09-17T20:22:06.773Z,5.35
2018-09-17T20:24:35.282Z,3.87
2018-09-17T20:27:03.797Z,3.40
2018-09-17T20:29:32.252Z,3.10
2018-09-17T20:32:00.612Z,3.42
2018-09-17T20:34:29.746Z,3.00
2018-09-17T20:36:58.083Z,2.63
2018-09-17T20:39:26.433Z,4.40
2018-09-17T20:41:54.817Z,5.25
2018-09-17T20:44:25.040Z,4.30
2018-09-17T20:46:54.233Z,3.35
2018-09-17T20:49:23.604Z,2.67
2018-09-17T20:51:51.956Z,3.00
2018-09-17T20:54:20.367Z,3.67
2018-09-17T20:56:48.713Z,3.53
2018-09-17T20:59:17.053Z,2.97
2018-09-17T21:01:45.455Z,3.30
2018-09-17T21:04:13.768Z,3.00
2018-09-17T21:06:42.194Z,2.70
2018-09-17T21:09:10.500Z,3.10
2018-09-17T21:11:38.830Z,3.10
2018-09-17T21:14:07.173Z,3.23
2018-09-17T21:16:35.515Z,2.90
2018-09-17T21:19:04.730Z,3.10
2018-09-17T21:21:34.983Z,2.90
2018-09-17T21:24:04.325Z,2.60
2018-09-17T21:26:32.809Z,2.60
2018-09-17T21:29:01.168Z,2.77
2018-09-17T21:31:29.591Z,3.00
2018-09-17T21:33:58.436Z,2.70
2018-09-17T21:36:26.706Z,3.00
2018-09-17T21:38:55.037Z,3.20
2018-09-17T21:41:23.488Z,3.43
2018-09-17T21:43:51.831Z,2.80
2018-09-17T21:46:20.255Z,20.07
2018-09-17T21:48:49.358Z,3.50
2018-09-17T21:51:18.515Z,4.17
2018-09-17T21:53:46.963Z,3.80
2018-09-17T21:56:15.868Z,4.13
2018-09-17T21:58:44.210Z,3.83
2018-09-17T22:01:12.673Z,3.00
2018-09-17T22:03:41.018Z,3.20
2018-09-17T22:06:09.351Z,3.20
2018-09-17T22:08:37.697Z,3.07
2018-09-17T22:11:06.133Z,3.20
2018-09-17T22:13:35.269Z,2.97
2018-09-17T22:16:03.824Z,3.27
2018-09-17T22:18:32.359Z,3.27
2018-09-17T22:21:00.767Z,3.40
2018-09-17T22:23:29.092Z,3.20
2018-09-17T22:25:57.477Z,3.43
2018-09-17T22:28:25.840Z,3.10
2018-09-17T22:30:54.234Z,3.53
2018-09-17T22:33:22.563Z,3.10
2018-09-17T22:35:51.807Z,3.00
2018-09-17T22:38:20.305Z,3.13
2018-09-17T22:40:48.659Z,3.23
2018-09-17T22:43:17.073Z,3.47
2018-09-17T22:45:46.203Z,2.90
2018-09-17T22:48:15.329Z,3.00
2018-09-17T22:50:44.237Z,3.47
2018-09-17T22:53:13.471Z,3.17
2018-09-17T22:55:41.900Z,3.00
2018-09-17T22:58:10.241Z,3.10
2018-09-17T23:00:38.620Z,3.17
2018-09-17T23:03:07.107Z,3.27
2018-09-17T23:05:35.546Z,3.20
2018-09-17T23:08:03.936Z,3.40
2018-09-17T23:10:33.041Z,3.43
2018-09-17T23:13:02.327Z,3.37
2018-09-17T23:15:30.739Z,3.60
2018-09-17T23:17:59.117Z,3.40
2018-09-17T23:20:27.467Z,3.13
2018-09-17T23:22:55.807Z,3.20
2018-09-17T23:25:24.189Z,3.17
2018-09-17T23:27:52.529Z,3.20
2018-09-17T23:30:21.008Z,3.20
2018-09-17T23:32:49.575Z,3.23
2018-09-17T23:35:18.022Z,3.00
2018-09-17T23:37:46.352Z,3.30
2018-09-17T23:40:14.713Z,3.10
2018-09-17T23:42:43.132Z,3.20
2018-09-17T23:45:11.513Z,3.40
2018-09-17T23:47:39.866Z,3.10
2018-09-17T23:50:08.950Z,3.13
2018-09-17T23:52:37.394Z,3.00
2018-09-17T23:55:05.796Z,3.00
2018-09-17T23:57:34.117Z,3.10
